Time;durP1;ratioP1;P1;durP2;ratioP2;P2;SDS_P1;SDS_P2;PMS_P1;PMS_P2;Temp;Humidity;BMP_temperature;BMP_pressure;BME280_temperature;BME280_humidity;BME280_pressure;Samples;Min_cycle;Max_cycle;Signal;HPM_P1;HPM_P2
2022/03/07 00:02:23;;;;;;;2.20;2.00;;;16.90;55.30;;;;;;5209556;28;20198;-67
2022/03/07 00:05:16;;;;;;;2.93;2.23;;;16.90;55.30;;;;;;5190147;28;20526;-67
2022/03/07 00:08:08;;;;;;;2.80;2.00;;;16.90;55.30;;;;;;5207004;28;20197;-67
2022/03/07 00:11:03;;;;;;;2.63;1.97;;;16.90;55.40;;;;;;5205491;28;20226;-67
2022/03/07 00:13:55;;;;;;;1.80;1.70;;;16.90;55.30;;;;;;5206944;28;20196;-67
2022/03/07 00:16:47;;;;;;;2.10;1.73;;;16.90;55.30;;;;;;5206462;28;20703;-67
2022/03/07 00:19:39;;;;;;;2.03;1.83;;;16.90;55.30;;;;;;5205040;28;20218;-67
2022/03/07 00:22:31;;;;;;;2.20;1.90;;;16.90;55.30;;;;;;5205969;28;20186;-67
2022/03/07 00:25:23;;;;;;;2.60;2.00;;;16.90;55.30;;;;;;5205761;28;20584;-67
2022/03/07 00:28:17;;;;;;;2.60;2.00;;;16.90;55.30;;;;;;5205979;28;20206;-67
2022/03/07 00:31:09;;;;;;;2.47;1.70;;;16.90;55.30;;;;;;5199813;28;20339;-67
2022/03/07 00:34:01;;;;;;;2.03;1.70;;;16.90;55.30;;;;;;5206133;28;20185;-66
2022/03/07 00:36:53;;;;;;;2.23;1.83;;;16.90;55.30;;;;;;5208163;28;20210;-67
2022/03/07 00:39:45;;;;;;;3.33;2.17;;;16.90;55.30;;;;;;5209106;28;20210;-68
2022/03/07 00:42:38;;;;;;;2.20;1.63;;;16.90;55.30;;;;;;5205701;28;20580;-67
2022/03/07 00:45:32;;;;;;;3.57;1.90;;;16.90;55.30;;;;;;5206775;28;20557;-66
2022/03/07 00:48:24;;;;;;;4.13;2.07;;;16.90;55.30;;;;;;5206449;28;20200;-67
2022/03/07 00:51:16;;;;;;;2.87;1.83;;;16.90;55.30;;;;;;5212495;28;20186;-67
2022/03/07 00:54:08;;;;;;;2.53;1.80;;;16.90;55.30;;;;;;5206352;28;20201;-67
2022/03/07 00:57:00;;;;;;;2.23;1.70;;;16.90;55.30;;;;;;5205038;28;20202;-67
2022/03/07 00:59:53;;;;;;;2.70;1.77;;;16.90;55.30;;;;;;5225427;28;20205;-67
2022/03/07 01:02:47;;;;;;;2.23;1.60;;;16.90;55.30;;;;;;5225363;28;20193;-67
2022/03/07 01:05:40;;;;;;;2.50;1.90;;;16.80;55.20;;;;;;5225033;28;20185;-67
2022/03/07 01:08:32;;;;;;;2.73;1.47;;;16.90;55.90;;;;;;5224750;28;20568;-67
2022/03/07 01:11:24;;;;;;;2.00;1.47;;;16.90;55.30;;;;;;5224549;28;20208;-67
2022/03/07 01:14:16;;;;;;;2.23;1.40;;;16.90;55.30;;;;;;5212232;28;20185;-67
2022/03/07 01:17:08;;;;;;;4.03;1.67;;;16.90;55.20;;;;;;5225489;28;20213;-67
2022/03/07 01:20:03;;;;;;;1.70;1.50;;;16.90;55.50;;;;;;5224338;28;20219;-67
2022/03/07 01:22:55;;;;;;;1.50;1.40;;;16.90;55.20;;;;;;5225119;28;20185;-67
2022/03/07 01:25:47;;;;;;;1.40;1.30;;;16.90;55.20;;;;;;5225589;28;20204;-66
2022/03/07 01:28:39;;;;;;;2.03;1.50;;;16.90;55.30;;;;;;5225492;28;20197;-67
2022/03/07 01:31:32;;;;;;;2.00;1.67;;;16.90;55.30;;;;;;5224219;28;20194;-66
2022/03/07 01:34:24;;;;;;;1.93;1.70;;;16.90;55.30;;;;;;5225018;28;20579;-67
2022/03/07 01:37:17;;;;;;;1.90;1.33;;;16.90;55.30;;;;;;5225273;28;20213;-67
2022/03/07 01:40:10;;;;;;;2.40;1.60;;;16.90;55.20;;;;;;5225148;28;20216;-67
2022/03/07 01:43:03;;;;;;;1.90;1.50;;;16.90;55.20;;;;;;5224683;28;20200;-67
2022/03/07 01:45:55;;;;;;;1.67;1.33;;;16.90;55.20;;;;;;5223266;28;20671;-67
2022/03/07 01:48:48;;;;;;;1.40;1.30;;;16.90;55.20;;;;;;5224539;28;20189;-67
2022/03/07 01:51:42;;;;;;;2.13;1.47;;;16.80;55.20;;;;;;5219448;28;20193;-67
2022/03/07 01:54:36;;;;;;;2.00;1.50;;;16.90;55.30;;;;;;5224930;28;20204;-66
2022/03/07 01:57:30;;;;;;;2.00;1.60;;;16.90;55.30;;;;;;5224552;28;20232;-67
2022/03/07 02:00:24;;;;;;;2.13;1.60;;;16.90;55.30;;;;;;5224052;28;20201;-67
2022/03/07 02:03:16;;;;;;;2.13;1.47;;;16.90;55.20;;;;;;5222249;28;20200;-67
2022/03/07 02:06:08;;;;;;;1.33;1.23;;;16.90;55.80;;;;;;5224333;28;20193;-67
2022/03/07 02:09:01;;;;;;;1.70;1.50;;;16.90;55.20;;;;;;5225178;28;20189;-67
2022/03/07 02:11:54;;;;;;;2.47;1.50;;;16.90;55.20;;;;;;5225376;28;20193;-67
2022/03/07 02:14:47;;;;;;;1.87;1.50;;;16.80;55.10;;;;;;5224344;28;20193;-67
2022/03/07 02:17:45;;;;;;;1.50;1.40;;;16.90;55.20;;;;;;5225092;28;20219;-66
2022/03/07 02:20:38;;;;;;;1.73;1.60;;;16.90;55.30;;;;;;5204769;28;20212;-66
2022/03/07 02:23:31;;;;;;;2.43;1.60;;;16.80;55.30;;;;;;5209211;28;20673;-67
2022/03/07 02:26:23;;;;;;;1.90;1.40;;;16.90;55.30;;;;;;5224305;28;20537;-67
2022/03/07 02:29:15;;;;;;;3.07;1.90;;;16.90;55.20;;;;;;5223386;28;20209;-67
2022/03/07 02:32:09;;;;;;;2.37;1.60;;;16.80;55.20;;;;;;5220352;28;20204;-67
2022/03/07 02:35:01;;;;;;;1.97;1.50;;;16.90;55.30;;;;;;5228109;28;20185;-67
2022/03/07 02:37:53;;;;;;;1.97;1.63;;;16.80;55.20;;;;;;5228115;28;20209;-67
2022/03/07 02:40:46;;;;;;;1.90;1.70;;;16.90;55.30;;;;;;5227827;28;20212;-66
2022/03/07 02:43:39;;;;;;;2.00;1.47;;;16.80;55.20;;;;;;5218637;28;20201;-66
2022/03/07 02:46:31;;;;;;;2.10;1.67;;;16.80;55.20;;;;;;5226409;28;20684;-67
2022/03/07 02:49:23;;;;;;;2.63;1.73;;;16.90;55.30;;;;;;5224985;28;20567;-67
2022/03/07 02:52:15;;;;;;;2.00;1.67;;;16.80;55.20;;;;;;5207000;28;20185;-67
2022/03/07 02:55:08;;;;;;;2.27;1.73;;;16.90;55.30;;;;;;5214556;28;20200;-67
2022/03/07 02:58:02;;;;;;;1.87;1.67;;;16.80;55.30;;;;;;5227966;28;20209;-66
2022/03/07 03:00:54;;;;;;;2.07;1.60;;;16.80;55.30;;;;;;5228010;28;20696;-67
2022/03/07 03:03:46;;;;;;;1.50;1.20;;;16.80;55.20;;;;;;5227475;28;20548;-67
2022/03/07 03:06:38;;;;;;;2.57;1.60;;;16.90;55.30;;;;;;5228022;28;20204;-66
2022/03/07 03:09:30;;;;;;;2.40;1.50;;;16.80;55.20;;;;;;5227859;28;20217;-67
2022/03/07 03:12:24;;;;;;;2.27;1.80;;;16.80;55.20;;;;;;5227024;28;20193;-67
2022/03/07 03:15:18;;;;;;;1.67;1.50;;;16.90;55.30;;;;;;5227588;28;20193;-67
2022/03/07 03:18:10;;;;;;;1.77;1.47;;;16.80;55.30;;;;;;5227302;28;20208;-67
2022/03/07 03:21:02;;;;;;;1.67;1.50;;;16.90;55.30;;;;;;5226499;28;20239;-66
2022/03/07 03:23:54;;;;;;;3.17;1.40;;;16.80;55.30;;;;;;5227085;28;20257;-67
2022/03/07 03:26:46;;;;;;;2.17;1.53;;;16.80;55.30;;;;;;5217028;28;20186;-67
2022/03/07 03:29:38;;;;;;;2.50;1.80;;;16.80;55.30;;;;;;5225721;28;20212;-65
2022/03/07 03:32:32;;;;;;;1.60;1.43;;;16.80;55.30;;;;;;5226935;28;20193;-67
2022/03/07 03:35:24;;;;;;;1.83;1.60;;;16.80;55.20;;;;;;5227585;28;20560;-67
2022/03/07 03:38:16;;;;;;;1.50;1.40;;;16.90;55.20;;;;;;5226725;28;20213;-67
2022/03/07 03:41:08;;;;;;;2.10;1.47;;;16.90;55.30;;;;;;5226190;28;20368;-67
2022/03/07 03:44:00;;;;;;;2.40;1.47;;;16.80;55.20;;;;;;5227424;28;20189;-67
2022/03/07 03:46:52;;;;;;;2.00;1.50;;;16.90;55.30;;;;;;5226685;28;20189;-66
2022/03/07 03:49:45;;;;;;;1.77;1.33;;;16.80;55.20;;;;;;5228398;28;20204;-67
2022/03/07 03:52:38;;;;;;;2.30;1.37;;;16.80;55.20;;;;;;5227144;28;20193;-65
2022/03/07 03:55:30;;;;;;;1.87;1.40;;;16.80;55.20;;;;;;5227089;28;20193;-67
2022/03/07 03:58:22;;;;;;;2.20;1.20;;;16.90;55.20;;;;;;5226777;28;20714;-67
2022/03/07 04:01:14;;;;;;;2.50;1.50;;;16.80;55.20;;;;;;5226845;28;20194;-65
2022/03/07 04:04:06;;;;;;;1.60;1.43;;;16.80;55.10;;;;;;5227025;28;20677;-67
2022/03/07 04:07:00;;;;;;;1.60;1.07;;;16.80;55.10;;;;;;5226066;28;20197;-67
2022/03/07 04:09:52;;;;;;;1.20;1.03;;;16.80;55.10;;;;;;5226687;28;20585;-67
2022/03/07 04:12:44;;;;;;;2.03;1.20;;;16.80;55.20;;;;;;5226040;28;20196;-66
2022/03/07 04:15:38;;;;;;;1.53;1.37;;;16.80;55.10;;;;;;5227603;28;20548;-67
2022/03/07 04:18:30;;;;;;;1.30;1.20;;;16.80;55.20;;;;;;5226195;28;20240;-67
2022/03/07 04:21:26;;;;;;;1.50;1.37;;;16.80;55.20;;;;;;5216753;28;20197;-67
2022/03/07 04:24:20;;;;;;;1.53;1.10;;;16.80;55.20;;;;;;5220498;28;20208;-67
2022/03/07 04:27:12;;;;;;;1.70;1.37;;;16.80;55.10;;;;;;5226588;28;20312;-67
2022/03/07 04:30:06;;;;;;;1.63;1.40;;;16.80;55.20;;;;;;5205902;28;20221;-66
2022/03/07 04:32:58;;;;;;;2.47;1.40;;;16.80;55.10;;;;;;5214913;28;20711;-66
2022/03/07 04:35:50;;;;;;;1.17;1.07;;;16.80;55.20;;;;;;5225884;28;20217;-66
2022/03/07 04:38:43;;;;;;;1.67;1.23;;;16.80;55.20;;;;;;5223309;28;20208;-66
2022/03/07 04:41:37;;;;;;;1.60;1.40;;;16.80;55.20;;;;;;5226372;28;20678;-67
2022/03/07 04:44:29;;;;;;;1.63;1.50;;;16.80;55.20;;;;;;5205835;28;20233;-67
2022/03/07 04:47:21;;;;;;;2.17;1.60;;;16.80;55.20;;;;;;5219576;28;20195;-66
2022/03/07 04:50:13;;;;;;;2.40;1.60;;;16.90;55.30;;;;;;5225863;28;20262;-67
2022/03/07 04:53:05;;;;;;;2.07;1.80;;;16.80;55.20;;;;;;5225810;28;20648;-67
2022/03/07 04:55:58;;;;;;;3.13;1.57;;;16.80;55.30;;;;;;5227942;28;20564;-66
2022/03/07 04:58:51;;;;;;;3.93;1.60;;;16.90;55.30;;;;;;5222840;28;20205;-66
2022/03/07 05:01:43;;;;;;;3.20;1.70;;;16.90;55.30;;;;;;5222615;28;20197;-66
2022/03/07 05:04:35;;;;;;;2.60;1.50;;;16.90;55.90;;;;;;5222998;28;20201;-67
2022/03/07 05:07:27;;;;;;;1.80;1.60;;;16.90;55.30;;;;;;5223335;28;20200;-66
2022/03/07 05:10:20;;;;;;;2.20;1.50;;;16.90;55.40;;;;;;5223032;28;20224;-66
2022/03/07 05:13:13;;;;;;;2.90;1.80;;;16.90;55.40;;;;;;5222746;28;20190;-66
2022/03/07 05:16:06;;;;;;;1.93;1.47;;;16.90;55.40;;;;;;5222304;28;20208;-66
2022/03/07 05:18:59;;;;;;;1.53;1.40;;;16.90;55.40;;;;;;5222605;28;20217;-66
2022/03/07 05:21:51;;;;;;;2.10;1.60;;;16.90;55.40;;;;;;5221544;28;20240;-66
2022/03/07 05:24:43;;;;;;;1.93;1.50;;;16.90;55.40;;;;;;5220134;28;20842;-66
2022/03/07 05:27:35;;;;;;;2.10;1.47;;;16.90;55.40;;;;;;5222158;28;20185;-66
2022/03/07 05:30:27;;;;;;;2.10;1.50;;;16.90;55.30;;;;;;5223110;28;20213;-67
2022/03/07 05:33:21;;;;;;;2.13;1.60;;;16.90;55.40;;;;;;5221759;28;20324;-67
2022/03/07 05:36:13;;;;;;;1.63;1.23;;;16.90;55.40;;;;;;5222370;28;20189;-67
2022/03/07 05:39:05;;;;;;;1.50;1.40;;;16.90;55.40;;;;;;5222216;28;20224;-67
2022/03/07 05:41:58;;;;;;;1.40;1.30;;;16.90;55.40;;;;;;5221587;28;20219;-67
2022/03/07 05:44:50;;;;;;;2.17;1.70;;;16.90;55.40;;;;;;5222313;28;20199;-67
2022/03/07 05:47:42;;;;;;;1.50;1.40;;;17.00;55.40;;;;;;5223901;28;20193;-66
2022/03/07 05:50:36;;;;;;;1.60;1.10;;;16.90;55.40;;;;;;5248913;22;20681;-66
2022/03/07 05:53:28;;;;;;;1.87;1.70;;;17.00;55.40;;;;;;5221239;28;20661;-66
2022/03/07 05:56:20;;;;;;;1.97;1.67;;;16.90;55.30;;;;;;5221291;28;20197;-65
2022/03/07 05:59:12;;;;;;;1.67;1.40;;;16.90;55.30;;;;;;5224743;28;20228;-66
2022/03/07 06:02:04;;;;;;;1.70;1.60;;;16.90;55.30;;;;;;5224005;28;20247;-66
2022/03/07 06:04:56;;;;;;;1.60;1.40;;;17.00;55.40;;;;;;5224346;28;20197;-66
2022/03/07 06:07:50;;;;;;;2.00;1.77;;;16.90;55.90;;;;;;5204721;28;20247;-66
2022/03/07 06:10:42;;;;;;;1.57;1.40;;;16.90;55.30;;;;;;5204726;28;20220;-66
2022/03/07 06:13:34;;;;;;;2.37;1.50;;;16.90;55.40;;;;;;5205488;28;20200;-66
2022/03/07 06:16:26;;;;;;;1.80;1.43;;;16.90;55.40;;;;;;5217031;28;20548;-66
2022/03/07 06:19:18;;;;;;;3.43;1.30;;;17.00;55.40;;;;;;5224763;28;20217;-66
2022/03/07 06:22:11;;;;;;;1.97;1.40;;;17.00;55.50;;;;;;5224673;28;20213;-65
2022/03/07 06:25:05;;;;;;;1.53;1.40;;;16.90;55.40;;;;;;5226579;28;20197;-66
2022/03/07 06:27:57;;;;;;;1.40;1.30;;;17.00;55.50;;;;;;5224575;28;20275;-65
2022/03/07 06:30:50;;;;;;;1.30;1.20;;;17.00;55.40;;;;;;5225528;28;20205;-66
2022/03/07 06:33:42;;;;;;;2.37;1.30;;;17.00;55.30;;;;;;5223976;28;20250;-65
2022/03/07 06:36:34;;;;;;;1.63;1.30;;;17.00;55.30;;;;;;5226851;28;20197;-66
2022/03/07 06:39:27;;;;;;;1.40;1.23;;;17.00;55.70;;;;;;5205336;28;20210;-66
2022/03/07 06:42:20;;;;;;;1.30;1.00;;;17.00;55.80;;;;;;5203900;28;20569;-65
2022/03/07 06:45:13;;;;;;;1.30;1.20;;;17.00;55.90;;;;;;5222787;28;20193;-65
2022/03/07 06:48:05;;;;;;;1.53;1.30;;;17.10;56.00;;;;;;5224632;28;20198;-66
2022/03/07 06:50:57;;;;;;;1.60;1.23;;;17.10;56.10;;;;;;5224104;28;20838;-66
2022/03/07 06:53:50;;;;;;;1.40;1.30;;;17.10;56.10;;;;;;5224420;28;20194;-66
2022/03/07 06:56:42;;;;;;;1.40;1.20;;;17.10;56.10;;;;;;5224445;28;20197;-66
2022/03/07 06:59:36;;;;;;;1.50;1.20;;;17.10;56.10;;;;;;5224883;28;20302;-66
2022/03/07 07:02:28;;;;;;;1.80;1.13;;;17.10;56.10;;;;;;5219886;28;20200;-67
2022/03/07 07:05:21;;;;;;;5.10;1.50;;;17.10;56.10;;;;;;5223471;28;20194;-66
2022/03/07 07:08:13;;;;;;;1.30;1.10;;;17.10;55.70;;;;;;5224852;28;20193;-67
2022/03/07 07:11:05;;;;;;;1.57;1.10;;;17.10;55.60;;;;;;5208315;28;20219;-66
2022/03/07 07:13:57;;;;;;;1.30;1.20;;;17.00;55.70;;;;;;5224054;28;20567;-66
2022/03/07 07:16:51;;;;;;;3.80;1.50;;;17.10;55.80;;;;;;5224550;28;20197;-66
2022/03/07 07:19:43;;;;;;;1.30;1.20;;;17.00;56.00;;;;;;5226735;28;20292;-66
2022/03/07 07:22:35;;;;;;;1.63;1.30;;;17.00;56.00;;;;;;5228378;28;20208;-66
2022/03/07 07:25:27;;;;;;;1.30;1.20;;;17.00;56.10;;;;;;5208195;28;20572;-66
2022/03/07 07:28:19;;;;;;;1.40;1.20;;;17.00;56.10;;;;;;5207263;28;20549;-66
2022/03/07 07:31:11;;;;;;;1.43;1.17;;;17.00;56.20;;;;;;5219162;28;20218;-66
2022/03/07 07:34:05;;;;;;;1.30;1.20;;;17.00;56.20;;;;;;5229219;28;20200;-67
2022/03/07 07:36:57;;;;;;;1.27;1.13;;;17.00;56.50;;;;;;5227672;28;20189;-67
2022/03/07 07:39:49;;;;;;;1.40;1.30;;;17.00;56.20;;;;;;5227377;28;20213;-67
2022/03/07 07:42:41;;;;;;;1.77;1.53;;;17.00;56.20;;;;;;5208071;28;20205;-67
2022/03/07 07:45:33;;;;;;;2.60;1.53;;;16.90;56.30;;;;;;5226711;28;20203;-68
2022/03/07 07:48:25;;;;;;;1.87;1.40;;;16.90;56.40;;;;;;5227323;28;20193;-67
2022/03/07 07:51:19;;;;;;;1.70;1.60;;;16.80;56.50;;;;;;5226944;28;20225;-68
2022/03/07 07:54:11;;;;;;;2.53;1.70;;;16.80;56.60;;;;;;5228555;28;20202;-68
2022/03/07 07:57:05;;;;;;;2.37;1.77;;;16.80;56.60;;;;;;5228256;28;20194;-67
2022/03/07 07:59:57;;;;;;;2.17;1.87;;;16.80;56.70;;;;;;5210905;28;20218;-67
2022/03/07 08:02:51;;;;;;;2.30;2.10;;;16.80;56.70;;;;;;5227491;28;20613;-67
2022/03/07 08:05:45;;;;;;;2.10;1.80;;;16.80;56.70;;;;;;5227856;28;20270;-66
2022/03/07 08:08:38;;;;;;;1.67;1.40;;;16.80;56.80;;;;;;5226991;28;20231;-66
2022/03/07 08:11:31;;;;;;;2.10;1.90;;;16.70;56.80;;;;;;5227037;28;20722;-67
2022/03/07 08:14:23;;;;;;;2.10;1.90;;;16.70;56.80;;;;;;5227370;28;20572;-66
2022/03/07 08:17:16;;;;;;;1.77;1.60;;;16.80;56.90;;;;;;5226845;28;20207;-67
2022/03/07 08:20:09;;;;;;;1.57;1.47;;;16.70;56.90;;;;;;5226434;28;20703;-68
2022/03/07 08:23:01;;;;;;;2.67;1.90;;;16.80;57.10;;;;;;5226458;28;20189;-68
2022/03/07 08:25:55;;;;;;;2.50;2.00;;;16.80;57.00;;;;;;5226255;28;20197;-68
2022/03/07 08:28:47;;;;;;;2.57;2.23;;;16.80;56.90;;;;;;5224921;28;20192;-68
2022/03/07 08:31:39;;;;;;;2.03;1.73;;;16.70;56.90;;;;;;5227325;28;20697;-67
2022/03/07 08:34:32;;;;;;;2.20;2.00;;;16.70;57.00;;;;;;5226567;28;20328;-67
2022/03/07 08:37:24;;;;;;;2.70;2.17;;;16.70;57.10;;;;;;5226049;28;20570;-67
2022/03/07 08:40:18;;;;;;;2.80;2.37;;;16.70;57.10;;;;;;5226954;28;20219;-67
2022/03/07 08:43:12;;;;;;;2.50;2.30;;;16.80;57.10;;;;;;5226992;28;20836;-67
2022/03/07 08:46:04;;;;;;;2.93;2.20;;;16.70;57.10;;;;;;5207083;28;20186;-67
2022/03/07 08:48:56;;;;;;;2.50;2.20;;;16.70;57.20;;;;;;5205208;28;20205;-68
2022/03/07 08:51:48;;;;;;;2.50;2.30;;;16.80;57.20;;;;;;5205300;28;20584;-67
2022/03/07 08:54:40;;;;;;;3.57;2.70;;;16.70;57.20;;;;;;5205797;28;20194;-67
2022/03/07 08:57:32;;;;;;;2.70;2.07;;;16.70;57.30;;;;;;5206624;28;20190;-67
2022/03/07 09:00:26;;;;;;;3.00;2.70;;;16.70;57.30;;;;;;5226505;28;20784;-67
2022/03/07 09:03:18;;;;;;;2.97;2.43;;;16.70;57.30;;;;;;5219336;28;20197;-67
2022/03/07 09:06:10;;;;;;;2.83;2.23;;;16.70;57.30;;;;;;5225908;28;20200;-67
2022/03/07 09:09:02;;;;;;;3.73;3.00;;;16.70;57.40;;;;;;5226404;28;20191;-67
2022/03/07 09:11:55;;;;;;;3.23;2.73;;;16.70;57.50;;;;;;5226387;28;20619;-69
2022/03/07 09:14:47;;;;;;;3.20;2.73;;;16.70;57.50;;;;;;5225404;28;20189;-67
2022/03/07 09:17:40;;;;;;;4.07;3.00;;;16.70;57.50;;;;;;5225185;28;20199;-66
2022/03/07 09:20:33;;;;;;;3.10;2.53;;;16.70;57.50;;;;;;5226666;28;20213;-67
2022/03/07 09:23:27;;;;;;;3.03;2.73;;;16.70;57.40;;;;;;5225833;28;20193;-67
2022/03/07 09:26:19;;;;;;;3.60;2.60;;;16.70;57.40;;;;;;5224244;28;20212;-68
2022/03/07 09:29:11;;;;;;;3.33;2.80;;;16.70;57.40;;;;;;5225062;28;20671;-67
2022/03/07 09:32:05;;;;;;;3.03;2.57;;;16.70;57.40;;;;;;5225719;28;20221;-67
2022/03/07 09:34:59;;;;;;;3.57;3.00;;;16.70;57.40;;;;;;5224932;28;20273;-67
2022/03/07 09:37:51;;;;;;;3.47;2.97;;;16.70;57.50;;;;;;5224898;28;20193;-67
2022/03/07 09:40:43;;;;;;;2.60;2.40;;;16.70;57.50;;;;;;5224531;28;20295;-67
2022/03/07 09:43:37;;;;;;;4.37;2.83;;;16.70;57.60;;;;;;5226192;28;20197;-67
2022/03/07 09:46:29;;;;;;;3.60;2.73;;;16.70;57.60;;;;;;5225470;28;20208;-67
2022/03/07 09:49:21;;;;;;;3.93;3.00;;;16.70;57.60;;;;;;5225047;28;20668;-68
2022/03/07 09:52:14;;;;;;;2.53;2.30;;;16.70;57.60;;;;;;5225265;28;20307;-67
2022/03/07 09:55:09;;;;;;;2.90;2.60;;;16.70;57.50;;;;;;5225257;28;20201;-67
2022/03/07 09:58:02;;;;;;;3.07;2.53;;;16.70;58.20;;;;;;5225464;28;20197;-66
2022/03/07 10:01:04;;;;;;;3.13;2.43;;;16.70;57.60;;;;;;5224816;28;20225;-67
2022/03/07 10:04:06;;;;;;;3.13;2.80;;;16.70;57.60;;;;;;5225778;28;20193;-67
2022/03/07 10:07:01;;;;;;;3.10;2.70;;;16.70;57.60;;;;;;5226828;28;20663;-67
2022/03/07 10:10:05;;;;;;;3.07;2.53;;;16.70;57.60;;;;;;5225473;28;20189;-66
2022/03/07 10:12:57;;;;;;;2.87;2.40;;;16.70;57.60;;;;;;5225614;28;20258;-67
2022/03/07 10:16:00;;;;;;;3.50;3.07;;;16.70;57.70;;;;;;5224806;28;20203;-67
2022/03/07 10:18:54;;;;;;;3.17;2.63;;;16.70;57.70;;;;;;5225181;28;20213;-67
2022/03/07 10:21:49;;;;;;;2.83;2.63;;;16.70;57.70;;;;;;5232767;28;20353;-66
2022/03/07 10:24:42;;;;;;;3.13;2.60;;;16.70;57.70;;;;;;5241289;28;20203;-66
2022/03/07 10:27:37;;;;;;;3.50;2.30;;;16.70;58.30;;;;;;5245720;28;20203;-67
2022/03/07 10:30:31;;;;;;;3.73;2.47;;;16.70;57.70;;;;;;5224547;28;20714;-69
2022/03/07 10:33:27;;;;;;;2.30;2.10;;;16.70;57.70;;;;;;5222610;28;20199;-68
2022/03/07 10:36:19;;;;;;;3.07;2.50;;;16.70;57.70;;;;;;5218055;28;20834;-66
2022/03/07 10:39:13;;;;;;;2.80;2.40;;;16.70;57.80;;;;;;5224879;28;20220;-67
2022/03/07 10:42:05;;;;;;;2.40;1.93;;;16.80;57.80;;;;;;5223627;28;20213;-66
2022/03/07 10:45:07;;;;;;;3.07;2.27;;;16.80;58.00;;;;;;5226404;28;20203;-65
2022/03/07 10:48:01;;;;;;;2.67;1.93;;;16.80;57.90;;;;;;5225485;28;20193;-66
2022/03/07 10:50:55;;;;;;;3.73;2.60;;;16.90;58.00;;;;;;5225513;28;20272;-67
2022/03/07 10:53:47;;;;;;;3.13;2.47;;;16.90;57.80;;;;;;5229143;28;20196;-66
2022/03/07 10:56:49;;;;;;;2.63;2.27;;;16.90;57.60;;;;;;5229260;28;20193;-66
2022/03/07 10:59:41;;;;;;;3.07;2.50;;;16.90;57.70;;;;;;5228357;28;20208;-66
2022/03/07 11:02:41;;;;;;;2.63;2.10;;;17.00;57.70;;;;;;5229076;28;20304;-66
2022/03/07 11:05:33;;;;;;;2.90;2.23;;;17.00;57.70;;;;;;5228739;28;20189;-66
2022/03/07 11:08:26;;;;;;;3.30;2.23;;;16.90;57.60;;;;;;5228669;28;20189;-66
2022/03/07 11:11:18;;;;;;;2.70;2.10;;;17.00;57.70;;;;;;5228058;28;20698;-66
2022/03/07 11:14:12;;;;;;;2.50;2.13;;;17.00;57.60;;;;;;5228122;28;20201;-66
2022/03/07 11:17:05;;;;;;;3.00;2.30;;;17.00;57.70;;;;;;5227295;28;20680;-66
2022/03/07 11:20:00;;;;;;;3.53;2.30;;;17.00;57.70;;;;;;5226157;28;20798;-68
2022/03/07 11:22:53;;;;;;;2.83;2.20;;;17.00;57.70;;;;;;5229287;28;20704;-67
2022/03/07 11:25:46;;;;;;;2.77;2.37;;;17.00;57.80;;;;;;5228573;28;20234;-68
2022/03/07 11:28:38;;;;;;;3.20;2.17;;;17.00;57.80;;;;;;5228312;28;20197;-68
2022/03/07 11:31:32;;;;;;;3.13;2.20;;;17.00;57.60;;;;;;5229285;28;20223;-68
2022/03/07 11:34:24;;;;;;;3.10;2.30;;;17.00;57.50;;;;;;5228381;28;20197;-69
2022/03/07 11:37:19;;;;;;;4.00;2.20;;;17.00;57.50;;;;;;5228761;28;20201;-68
2022/03/07 11:40:20;;;;;;;2.53;1.90;;;17.00;57.40;;;;;;5229095;28;20221;-69
2022/03/07 11:43:12;;;;;;;3.23;2.43;;;17.00;57.60;;;;;;5232135;28;20398;-68
2022/03/07 11:46:05;;;;;;;3.40;2.23;;;17.00;57.70;;;;;;5240108;28;20203;-70
2022/03/07 11:48:58;;;;;;;3.93;2.43;;;17.00;57.80;;;;;;5249223;28;20698;-69
2022/03/07 11:51:58;;;;;;;4.70;2.70;;;17.00;57.80;;;;;;5238434;22;20339;-66
2022/03/07 11:54:57;;;;;;;4.53;2.90;;;17.00;57.70;;;;;;5223911;28;20197;-64
2022/03/07 11:57:59;;;;;;;4.53;2.87;;;17.00;57.80;;;;;;5225421;28;20198;-65
2022/03/07 12:01:03;;;;;;;4.17;2.33;;;17.00;57.80;;;;;;5229033;28;20708;-65
2022/03/07 12:03:55;;;;;;;5.37;2.67;;;17.00;57.90;;;;;;5228452;28;20692;-65
2022/03/07 12:06:49;;;;;;;5.60;3.23;;;17.00;58.00;;;;;;5231368;28;20668;-65
2022/03/07 12:09:41;;;;;;;5.50;2.90;;;17.00;58.10;;;;;;5228608;28;20272;-65
2022/03/07 12:12:35;;;;;;;5.07;2.93;;;17.00;58.10;;;;;;5228584;28;20224;-65
2022/03/07 12:15:27;;;;;;;2.87;2.33;;;16.90;58.00;;;;;;5229176;28;20196;-65
2022/03/07 12:18:19;;;;;;;3.27;2.47;;;17.00;58.10;;;;;;5228407;28;20331;-65
2022/03/07 12:21:11;;;;;;;3.80;2.53;;;17.00;58.10;;;;;;5229634;28;20221;-65
2022/03/07 12:24:06;;;;;;;4.13;2.43;;;16.90;58.10;;;;;;5227116;28;20193;-65
2022/03/07 12:27:00;;;;;;;4.53;2.80;;;16.90;58.10;;;;;;5227260;28;20219;-65
2022/03/07 12:29:54;;;;;;;5.23;2.60;;;17.00;58.20;;;;;;5226646;28;20260;-64
2022/03/07 12:32:46;;;;;;;4.63;2.63;;;17.00;58.20;;;;;;5227182;28;20216;-65
2022/03/07 12:35:38;;;;;;;4.80;2.73;;;17.00;58.20;;;;;;5227428;28;20200;-66
2022/03/07 12:38:31;;;;;;;3.07;2.20;;;17.00;58.20;;;;;;5227247;28;20780;-66
2022/03/07 12:41:30;;;;;;;5.13;3.20;;;17.00;58.20;;;;;;5227176;28;20221;-68
2022/03/07 12:44:25;;;;;;;3.63;1.90;;;17.00;58.30;;;;;;5228612;28;20690;-66
2022/03/07 12:47:25;;;;;;;4.03;2.33;;;17.00;58.40;;;;;;5227636;28;20208;-66
2022/03/07 12:50:17;;;;;;;3.33;2.13;;;17.00;58.50;;;;;;5226750;28;20185;-66
2022/03/07 12:53:12;;;;;;;4.13;2.20;;;17.10;58.60;;;;;;5225982;28;20276;-66
2022/03/07 12:56:05;;;;;;;3.20;2.33;;;17.10;58.50;;;;;;5228394;28;20513;-66
2022/03/07 12:58:58;;;;;;;2.97;1.87;;;17.10;58.50;;;;;;5226587;28;20201;-66
2022/03/07 13:01:51;;;;;;;3.40;2.10;;;17.10;58.40;;;;;;5224160;28;20228;-66
2022/03/07 13:04:45;;;;;;;3.30;2.23;;;17.20;58.40;;;;;;5226405;28;20237;-66
2022/03/07 13:07:37;;;;;;;3.30;2.10;;;17.10;58.30;;;;;;5228191;28;20194;-67
2022/03/07 13:10:31;;;;;;;3.80;2.20;;;17.10;58.20;;;;;;5228109;28;20185;-67
2022/03/07 13:13:23;;;;;;;2.90;2.20;;;17.20;58.20;;;;;;5228871;28;20201;-67
2022/03/07 13:16:26;;;;;;;3.37;2.20;;;17.10;58.20;;;;;;5228450;28;20228;-67
2022/03/07 13:19:21;;;;;;;3.83;2.40;;;17.10;58.30;;;;;;5212679;28;20208;-66
2022/03/07 13:22:14;;;;;;;3.93;2.37;;;17.20;58.40;;;;;;5224211;28;20452;-70
2022/03/07 13:25:07;;;;;;;3.77;2.60;;;17.10;58.40;;;;;;5206696;28;20197;-69
2022/03/07 13:27:59;;;;;;;4.00;2.50;;;17.10;58.50;;;;;;5207116;28;20204;-70
2022/03/07 13:30:51;;;;;;;6.17;2.17;;;17.10;58.40;;;;;;5205841;28;20692;-69
2022/03/07 13:33:44;;;;;;;3.73;2.10;;;17.10;58.50;;;;;;5206062;28;20193;-69
2022/03/07 13:36:40;;;;;;;3.13;2.17;;;17.10;58.50;;;;;;5206315;28;20221;-70
2022/03/07 13:39:35;;;;;;;6.40;2.43;;;17.10;58.50;;;;;;5205630;28;20574;-70
2022/03/07 13:42:33;;;;;;;5.23;2.20;;;17.10;58.50;;;;;;5205457;28;20221;-69
2022/03/07 13:45:29;;;;;;;3.23;2.10;;;17.20;58.50;;;;;;5205773;28;20264;-70
2022/03/07 13:48:24;;;;;;;3.50;2.00;;;17.10;58.50;;;;;;5224719;28;20193;-70
2022/03/07 13:51:16;;;;;;;2.93;2.10;;;17.10;58.50;;;;;;5233052;28;20294;-70
2022/03/07 13:54:08;;;;;;;4.67;2.10;;;17.10;58.50;;;;;;5239802;28;20204;-70
2022/03/07 13:57:05;;;;;;;3.30;2.37;;;17.10;58.50;;;;;;5246123;28;20322;-70
2022/03/07 13:59:59;;;;;;;3.37;1.60;;;17.10;58.50;;;;;;5225719;28;20209;-68
2022/03/07 14:02:55;;;;;;;2.90;2.20;;;17.10;58.50;;;;;;5225316;28;20238;-72
2022/03/07 14:05:51;;;;;;;5.33;2.00;;;17.10;58.50;;;;;;5225138;28;20549;-72
2022/03/07 14:08:43;;;;;;;2.33;1.77;;;17.20;58.70;;;;;;5224837;28;20270;-74
2022/03/07 14:11:35;;;;;;;4.97;2.40;;;17.20;58.70;;;;;;5223999;28;20266;-72
2022/03/07 14:14:29;;;;;;;5.70;2.03;;;17.20;58.60;;;;;;5224778;28;20189;-72
2022/03/07 14:17:21;;;;;;;3.57;1.80;;;17.20;58.50;;;;;;5223258;28;20193;-71
2022/03/07 14:20:13;;;;;;;3.90;1.90;;;17.20;58.50;;;;;;5223153;28;20254;-72
2022/03/07 14:23:07;;;;;;;3.20;2.07;;;17.20;58.50;;;;;;5223041;28;20216;-72
2022/03/07 14:26:01;;;;;;;4.10;2.20;;;17.20;58.50;;;;;;5226077;28;20688;-72
2022/03/07 14:28:53;;;;;;;2.70;1.97;;;17.20;58.40;;;;;;5228280;28;20193;-72
2022/03/07 14:31:47;;;;;;;3.70;2.20;;;17.20;58.50;;;;;;5229107;28;20205;-73
2022/03/07 14:34:39;;;;;;;3.53;1.93;;;17.20;58.50;;;;;;5228989;28;20338;-73
2022/03/07 14:37:34;;;;;;;4.33;2.30;;;17.20;58.50;;;;;;5228658;28;20193;-73
2022/03/07 14:40:26;;;;;;;3.77;2.30;;;17.20;58.50;;;;;;5229277;28;20267;-73
2022/03/07 14:43:19;;;;;;;3.40;1.77;;;17.20;58.50;;;;;;5228783;28;20664;-73
2022/03/07 14:46:11;;;;;;;3.27;1.70;;;17.20;58.50;;;;;;5228655;28;20193;-73
2022/03/07 14:49:05;;;;;;;6.27;2.00;;;17.20;58.50;;;;;;5228479;28;20258;-73
2022/03/07 14:51:57;;;;;;;3.33;1.77;;;17.20;58.50;;;;;;5207458;28;20716;-73
2022/03/07 14:54:51;;;;;;;2.87;1.70;;;17.20;58.50;;;;;;5208655;28;20251;-73
2022/03/07 14:57:43;;;;;;;2.77;1.63;;;17.20;58.50;;;;;;5215757;28;20194;-73
2022/03/07 15:00:35;;;;;;;3.10;1.80;;;17.20;58.60;;;;;;5228115;28;20217;-73
2022/03/07 15:03:27;;;;;;;4.43;2.20;;;17.20;58.60;;;;;;5228831;28;20642;-73